sensor_id;sensor_type;location;lat;lon;timestamp;pressure;altitude;pressure_sealevel;temperature;humidity
30110;BME280;14965;50.660;13.226;2023-02-13T00:02:07;96846.09;;;2.42;100.00
30110;BME280;14965;50.660;13.226;2023-02-13T00:04:33;96840.63;;;2.42;100.00
30110;BME280;14965;50.660;13.226;2023-02-13T00:06:59;96839.53;;;2.43;100.00
30110;BME280;14965;50.660;13.226;2023-02-13T00:09:26;96835.97;;;2.42;100.00
30110;BME280;14965;50.660;13.226;2023-02-13T00:11:52;96840.63;;;2.42;100.00
30110;BME280;14965;50.660;13.226;2023-02-13T00:14:18;96838.72;;;2.42;100.00
30110;BME280;14965;50.660;13.226;2023-02-13T00:16:44;96826.78;;;2.35;100.00
30110;BME280;14965;50.660;13.226;2023-02-13T00:19:10;96843.81;;;2.32;100.00
30110;BME280;14965;50.660;13.226;2023-02-13T00:21:36;96839.38;;;2.27;100.00
30110;BME280;14965;50.660;13.226;2023-02-13T00:24:02;96847.88;;;2.25;100.00
30110;BME280;14965;50.660;13.226;2023-02-13T00:26:29;96841.97;;;2.23;100.00
30110;BME280;14965;50.660;13.226;2023-02-13T00:28:56;96840.03;;;2.24;100.00
30110;BME280;14965;50.660;13.226;2023-02-13T00:31:22;96834.22;;;2.25;100.00
30110;BME280;14965;50.660;13.226;2023-02-13T00:33:48;96844.03;;;2.27;100.00
30110;BME280;14965;50.660;13.226;2023-02-13T00:36:16;96842.53;;;2.29;100.00
30110;BME280;14965;50.660;13.226;2023-02-13T00:38:44;96842.66;;;2.33;100.00
30110;BME280;14965;50.660;13.226;2023-02-13T00:41:11;96843.59;;;2.37;100.00
30110;BME280;14965;50.660;13.226;2023-02-13T00:43:39;96841.34;;;2.39;100.00
30110;BME280;14965;50.660;13.226;2023-02-13T00:46:05;96845.78;;;2.43;100.00
30110;BME280;14965;50.660;13.226;2023-02-13T00:48:33;96830.66;;;2.46;100.00
30110;BME280;14965;50.660;13.226;2023-02-13T00:51:00;96849.06;;;2.49;100.00
30110;BME280;14965;50.660;13.226;2023-02-13T00:53:26;96845.69;;;2.52;100.00
30110;BME280;14965;50.660;13.226;2023-02-13T00:55:53;96840.66;;;2.54;100.00
30110;BME280;14965;50.660;13.226;2023-02-13T00:58:20;96844.66;;;2.57;100.00
30110;BME280;14965;50.660;13.226;2023-02-13T01:00:48;96838.88;;;2.58;100.00
30110;BME280;14965;50.660;13.226;2023-02-13T01:03:15;96845.59;;;2.61;100.00
30110;BME280;14965;50.660;13.226;2023-02-13T01:05:42;96844.78;;;2.60;100.00
30110;BME280;14965;50.660;13.226;2023-02-13T01:08:08;96842.84;;;2.61;100.00
30110;BME280;14965;50.660;13.226;2023-02-13T01:10:36;96847.97;;;2.62;100.00
30110;BME280;14965;50.660;13.226;2023-02-13T01:13:02;96842.50;;;2.62;100.00
30110;BME280;14965;50.660;13.226;2023-02-13T01:15:28;96848.75;;;2.63;100.00
30110;BME280;14965;50.660;13.226;2023-02-13T01:17:55;96852.28;;;2.63;100.00
30110;BME280;14965;50.660;13.226;2023-02-13T01:20:21;96842.19;;;2.64;100.00
30110;BME280;14965;50.660;13.226;2023-02-13T01:22:48;96844.91;;;2.64;100.00
30110;BME280;14965;50.660;13.226;2023-02-13T01:25:14;96846.81;;;2.63;100.00
30110;BME280;14965;50.660;13.226;2023-02-13T01:27:40;96844.91;;;2.64;100.00
30110;BME280;14965;50.660;13.226;2023-02-13T01:30:09;96846.03;;;2.63;100.00
30110;BME280;14965;50.660;13.226;2023-02-13T01:32:36;96838.97;;;2.62;100.00
30110;BME280;14965;50.660;13.226;2023-02-13T01:35:04;96834.66;;;2.61;100.00
30110;BME280;14965;50.660;13.226;2023-02-13T01:37:30;96833.09;;;2.60;100.00
30110;BME280;14965;50.660;13.226;2023-02-13T01:39:56;96830.00;;;2.61;100.00
30110;BME280;14965;50.660;13.226;2023-02-13T01:42:26;96833.88;;;2.60;100.00
30110;BME280;14965;50.660;13.226;2023-02-13T01:44:54;96824.44;;;2.58;100.00
30110;BME280;14965;50.660;13.226;2023-02-13T01:47:38;96832.63;;;2.58;100.00
30110;BME280;14965;50.660;13.226;2023-02-13T01:50:13;96832.63;;;2.58;100.00
30110;BME280;14965;50.660;13.226;2023-02-13T01:52:47;96835.69;;;2.56;100.00
30110;BME280;14965;50.660;13.226;2023-02-13T01:55:15;96829.44;;;2.56;100.00
30110;BME280;14965;50.660;13.226;2023-02-13T01:57:46;96825.44;;;2.53;100.00
30110;BME280;14965;50.660;13.226;2023-02-13T02:00:15;96825.44;;;2.53;100.00
30110;BME280;14965;50.660;13.226;2023-02-13T02:02:45;96819.19;;;2.53;100.00
30110;BME280;14965;50.660;13.226;2023-02-13T02:05:18;96820.34;;;2.52;100.00
30110;BME280;14965;50.660;13.226;2023-02-13T02:07:45;96823.38;;;2.50;100.00
30110;BME280;14965;50.660;13.226;2023-02-13T02:10:16;96809.75;;;2.50;100.00
30110;BME280;14965;50.660;13.226;2023-02-13T02:12:49;96809.75;;;2.50;100.00
30110;BME280;14965;50.660;13.226;2023-02-13T02:15:17;96809.75;;;2.50;100.00
30110;BME280;14965;50.660;13.226;2023-02-13T02:17:43;96815.22;;;2.50;100.00
30110;BME280;14965;50.660;13.226;2023-02-13T02:20:25;96815.69;;;2.52;100.00
30110;BME280;14965;50.660;13.226;2023-02-13T02:23:37;96807.72;;;2.47;100.00
30110;BME280;14965;50.660;13.226;2023-02-13T02:26:58;96808.00;;;2.33;100.00
30110;BME280;14965;50.660;13.226;2023-02-13T02:33:02;96805.88;;;2.27;100.00
30110;BME280;14965;50.660;13.226;2023-02-13T02:35:44;96802.78;;;2.28;100.00
30110;BME280;14965;50.660;13.226;2023-02-13T02:38:39;96793.94;;;2.31;100.00
30110;BME280;14965;50.660;13.226;2023-02-13T02:41:18;96803.03;;;2.35;100.00
30110;BME280;14965;50.660;13.226;2023-02-13T02:44:00;96790.66;;;2.38;100.00
30110;BME280;14965;50.660;13.226;2023-02-13T02:46:36;96790.66;;;2.38;100.00
30110;BME280;14965;50.660;13.226;2023-02-13T02:49:06;96802.03;;;2.40;100.00
30110;BME280;14965;50.660;13.226;2023-02-13T02:52:02;96801.22;;;2.39;100.00
30110;BME280;14965;50.660;13.226;2023-02-13T02:54:37;96799.28;;;2.40;100.00
30110;BME280;14965;50.660;13.226;2023-02-13T02:57:10;96799.66;;;2.38;100.00
30110;BME280;14965;50.660;13.226;2023-02-13T02:59:39;96799.16;;;2.36;100.00
30110;BME280;14965;50.660;13.226;2023-02-13T03:02:09;96799.97;;;2.37;100.00
30110;BME280;14965;50.660;13.226;2023-02-13T03:04:41;96806.69;;;2.39;100.00
30110;BME280;14965;50.660;13.226;2023-02-13T03:07:12;96800.88;;;2.41;100.00
30110;BME280;14965;50.660;13.226;2023-02-13T03:09:42;96790.44;;;2.43;100.00
30110;BME280;14965;50.660;13.226;2023-02-13T03:12:16;96802.94;;;2.44;100.00
30110;BME280;14965;50.660;13.226;2023-02-13T03:14:43;96790.44;;;2.43;100.00
30110;BME280;14965;50.660;13.226;2023-02-13T03:17:12;96790.09;;;2.44;100.00
30110;BME280;14965;50.660;13.226;2023-02-13T03:19:55;96805.53;;;2.40;100.00
30110;BME280;14965;50.660;13.226;2023-02-13T03:22:35;96805.41;;;2.37;100.00
30110;BME280;14965;50.660;13.226;2023-02-13T03:25:17;96796.09;;;2.38;100.00
30110;BME280;14965;50.660;13.226;2023-02-13T03:27:55;96805.09;;;2.38;100.00
30110;BME280;14965;50.660;13.226;2023-02-13T03:30:38;96803.16;;;2.39;100.00
30110;BME280;14965;50.660;13.226;2023-02-13T03:33:34;96788.38;;;2.40;100.00
30110;BME280;14965;50.660;13.226;2023-02-13T03:36:16;96789.97;;;2.41;100.00
30110;BME280;14965;50.660;13.226;2023-02-13T03:38:55;96794.28;;;2.42;100.00
30110;BME280;14965;50.660;13.226;2023-02-13T03:41:27;96800.88;;;2.41;100.00
30110;BME280;14965;50.660;13.226;2023-02-13T03:44:08;96803.97;;;2.39;100.00
30110;BME280;14965;50.660;13.226;2023-02-13T03:46:39;96802.03;;;2.40;100.00
30110;BME280;14965;50.660;13.226;2023-02-13T03:49:10;96799.75;;;2.42;100.00
30110;BME280;14965;50.660;13.226;2023-02-13T03:51:46;96802.03;;;2.40;100.00
30110;BME280;14965;50.660;13.226;2023-02-13T03:54:20;96811.44;;;2.42;100.00
30110;BME280;14965;50.660;13.226;2023-02-13T03:56:50;96803.97;;;2.39;100.00
30110;BME280;14965;50.660;13.226;2023-02-13T03:59:22;96811.66;;;2.37;100.00
30110;BME280;14965;50.660;13.226;2023-02-13T04:01:59;96813.28;;;2.38;100.00
30110;BME280;14965;50.660;13.226;2023-02-13T04:04:35;96817.59;;;2.39;100.00
30110;BME280;14965;50.660;13.226;2023-02-13T04:07:10;96803.59;;;2.41;100.00
30110;BME280;14965;50.660;13.226;2023-02-13T04:09:41;96811.00;;;2.40;100.00
30110;BME280;14965;50.660;13.226;2023-02-13T04:12:15;96812.94;;;2.40;100.00
30110;BME280;14965;50.660;13.226;2023-02-13T04:14:51;96812.47;;;2.38;100.00
30110;BME280;14965;50.660;13.226;2023-02-13T04:17:26;96816.00;;;2.38;100.00
30110;BME280;14965;50.660;13.226;2023-02-13T04:19:55;96819.53;;;2.39;100.00
30110;BME280;14965;50.660;13.226;2023-02-13T04:22:22;96816.78;;;2.39;100.00
30110;BME280;14965;50.660;13.226;2023-02-13T04:24:48;96817.91;;;2.38;100.00
30110;BME280;14965;50.660;13.226;2023-02-13T04:27:15;96814.88;;;2.39;100.00
30110;BME280;14965;50.660;13.226;2023-02-13T04:29:43;96816.78;;;2.39;100.00
30110;BME280;14965;50.660;13.226;2023-02-13T04:32:09;96820.63;;;2.38;100.00
30110;BME280;14965;50.660;13.226;2023-02-13T04:34:35;96810.06;;;2.36;100.00
30110;BME280;14965;50.660;13.226;2023-02-13T04:37:01;96815.53;;;2.36;100.00
30110;BME280;14965;50.660;13.226;2023-02-13T04:39:28;96813.16;;;2.35;100.00
30110;BME280;14965;50.660;13.226;2023-02-13T04:41:54;96810.75;;;2.33;100.00
30110;BME280;14965;50.660;13.226;2023-02-13T04:44:20;96812.69;;;2.33;100.00
30110;BME280;14965;50.660;13.226;2023-02-13T04:46:46;96804.19;;;2.34;100.00
30110;BME280;14965;50.660;13.226;2023-02-13T04:49:12;96806.91;;;2.34;100.00
30110;BME280;14965;50.660;13.226;2023-02-13T04:51:38;96802.25;;;2.35;100.00
30110;BME280;14965;50.660;13.226;2023-02-13T04:54:04;96804.97;;;2.35;100.00
30110;BME280;14965;50.660;13.226;2023-02-13T04:56:31;96804.06;;;2.31;100.00
30110;BME280;14965;50.660;13.226;2023-02-13T04:58:57;96806.06;;;2.21;100.00
30110;BME280;14965;50.660;13.226;2023-02-13T05:01:23;96808.34;;;2.19;100.00
30110;BME280;14965;50.660;13.226;2023-02-13T05:03:49;96816.97;;;2.21;100.00
30110;BME280;14965;50.660;13.226;2023-02-13T05:06:15;96806.06;;;2.21;100.00
30110;BME280;14965;50.660;13.226;2023-02-13T05:08:41;96799.50;;;2.22;100.00
30110;BME280;14965;50.660;13.226;2023-02-13T05:11:07;96804.16;;;2.22;100.00
30110;BME280;14965;50.660;13.226;2023-02-13T05:13:34;96803.00;;;2.23;100.00
30110;BME280;14965;50.660;13.226;2023-02-13T05:16:00;96809.47;;;2.18;100.00
30110;BME280;14965;50.660;13.226;2023-02-13T05:18:26;96805.03;;;2.14;100.00
30110;BME280;14965;50.660;13.226;2023-02-13T05:20:52;96805.03;;;2.14;100.00
30110;BME280;14965;50.660;13.226;2023-02-13T05:23:17;96803.53;;;2.16;100.00
30110;BME280;14965;50.660;13.226;2023-02-13T05:25:43;96798.88;;;2.17;100.00
30110;BME280;14965;50.660;13.226;2023-02-13T05:28:09;96801.69;;;2.08;100.00
30110;BME280;14965;50.660;13.226;2023-02-13T05:30:36;96793.75;;;2.03;100.00
30110;BME280;14965;50.660;13.226;2023-02-13T05:33:02;96806.94;;;2.01;100.00
30110;BME280;14965;50.660;13.226;2023-02-13T05:35:28;96796.03;;;2.01;100.00
30110;BME280;14965;50.660;13.226;2023-02-13T05:37:54;96796.22;;;1.96;100.00
30110;BME280;14965;50.660;13.226;2023-02-13T05:40:20;96803.28;;;1.97;100.00
30110;BME280;14965;50.660;13.226;2023-02-13T05:42:45;96798.50;;;1.94;100.00
30110;BME280;14965;50.660;13.226;2023-02-13T05:45:11;96800.56;;;1.97;100.00
30110;BME280;14965;50.660;13.226;2023-02-13T05:47:38;96806.09;;;2.00;100.00
30110;BME280;14965;50.660;13.226;2023-02-13T05:50:06;96801.13;;;2.03;100.00
30110;BME280;14965;50.660;13.226;2023-02-13T05:52:32;96798.84;;;2.05;100.00
30110;BME280;14965;50.660;13.226;2023-02-13T05:54:58;96802.06;;;2.07;100.00
30110;BME280;14965;50.660;13.226;2023-02-13T05:57:24;96801.69;;;2.08;100.00
30110;BME280;14965;50.660;13.226;2023-02-13T05:59:50;96795.94;;;2.10;100.00
30110;BME280;14965;50.660;13.226;2023-02-13T06:02:15;96793.22;;;2.10;100.00
30110;BME280;14965;50.660;13.226;2023-02-13T06:04:42;96798.31;;;2.11;100.00
30110;BME280;14965;50.660;13.226;2023-02-13T06:07:08;96811.94;;;2.11;100.00
30110;BME280;14965;50.660;13.226;2023-02-13T06:09:34;96810.22;;;2.07;100.00
30110;BME280;14965;50.660;13.226;2023-02-13T06:12:00;96809.09;;;2.08;100.00
30110;BME280;14965;50.660;13.226;2023-02-13T06:14:26;96808.28;;;2.07;100.00
30110;BME280;14965;50.660;13.226;2023-02-13T06:16:52;96806.59;;;2.03;100.00
30110;BME280;14965;50.660;13.226;2023-02-13T06:19:18;96813.63;;;2.04;100.00
30110;BME280;14965;50.660;13.226;2023-02-13T06:21:45;96814.41;;;2.04;100.00
30110;BME280;14965;50.660;13.226;2023-02-13T06:24:11;96815.69;;;2.07;100.00
30110;BME280;14965;50.660;13.226;2023-02-13T06:26:37;96821.56;;;2.09;100.00
30110;BME280;14965;50.660;13.226;2023-02-13T06:29:03;96823.97;;;2.10;100.00
30110;BME280;14965;50.660;13.226;2023-02-13T06:31:29;96817.75;;;2.10;100.00
30110;BME280;14965;50.660;13.226;2023-02-13T06:33:55;96822.84;;;2.11;100.00
30110;BME280;14965;50.660;13.226;2023-02-13T06:36:20;96831.50;;;2.13;100.00
30110;BME280;14965;50.660;13.226;2023-02-13T06:38:47;96824.78;;;2.11;100.00
30110;BME280;14965;50.660;13.226;2023-02-13T06:41:13;96824.44;;;2.12;100.00
30110;BME280;14965;50.660;13.226;2023-02-13T06:43:39;96819.47;;;2.14;100.00
30110;BME280;14965;50.660;13.226;2023-02-13T06:46:05;96824.25;;;2.17;100.00
30110;BME280;14965;50.660;13.226;2023-02-13T06:48:32;96825.03;;;2.18;100.00
30110;BME280;14965;50.660;13.226;2023-02-13T06:50:58;96824.69;;;2.19;100.00
30110;BME280;14965;50.660;13.226;2023-02-13T06:53:24;96821.97;;;2.19;100.00
30110;BME280;14965;50.660;13.226;2023-02-13T06:55:52;96825.13;;;2.21;100.00
30110;BME280;14965;50.660;13.226;2023-02-13T06:58:18;96831.41;;;2.22;100.00
30110;BME280;14965;50.660;13.226;2023-02-13T07:00:44;96829.47;;;2.22;100.00
30110;BME280;14965;50.660;13.226;2023-02-13T07:03:10;96838.09;;;2.24;100.00
30110;BME280;14965;50.660;13.226;2023-02-13T07:05:38;96838.09;;;2.24;100.00
30110;BME280;14965;50.660;13.226;2023-02-13T07:08:04;96837.31;;;2.24;100.00
30110;BME280;14965;50.660;13.226;2023-02-13T07:10:30;96841.63;;;2.25;100.00
30110;BME280;14965;50.660;13.226;2023-02-13T07:12:57;96849.47;;;2.27;100.00
30110;BME280;14965;50.660;13.226;2023-02-13T07:15:23;96850.28;;;2.27;100.00
30110;BME280;14965;50.660;13.226;2023-02-13T07:17:55;96854.25;;;2.30;100.00
30110;BME280;14965;50.660;13.226;2023-02-13T07:20:21;96854.59;;;2.28;100.00
30110;BME280;14965;50.660;13.226;2023-02-13T07:22:47;96855.06;;;2.30;100.00
30110;BME280;14965;50.660;13.226;2023-02-13T07:25:13;96853.25;;;2.34;100.00
30110;BME280;14965;50.660;13.226;2023-02-13T07:27:39;96861.53;;;2.38;100.00
30110;BME280;14965;50.660;13.226;2023-02-13T07:30:08;96845.31;;;2.41;100.00
30110;BME280;14965;50.660;13.226;2023-02-13T07:32:34;96853.63;;;2.45;100.00
30110;BME280;14965;50.660;13.226;2023-02-13T07:35:00;96847.94;;;2.50;100.00
30110;BME280;14965;50.660;13.226;2023-02-13T07:37:26;96854.31;;;2.54;100.00
30110;BME280;14965;50.660;13.226;2023-02-13T07:39:52;96851.38;;;2.59;100.00
30110;BME280;14965;50.660;13.226;2023-02-13T07:42:18;96842.19;;;2.64;100.00
30110;BME280;14965;50.660;13.226;2023-02-13T07:44:44;96851.28;;;2.68;100.00
30110;BME280;14965;50.660;13.226;2023-02-13T07:47:11;96854.94;;;2.72;100.00
30110;BME280;14965;50.660;13.226;2023-02-13T07:49:37;96850.38;;;2.76;100.00
30110;BME280;14965;50.660;13.226;2023-02-13T07:52:03;96848.56;;;2.80;100.00
30110;BME280;14965;50.660;13.226;2023-02-13T07:54:29;96845.16;;;2.83;100.00
30110;BME280;14965;50.660;13.226;2023-02-13T07:56:55;96840.94;;;2.86;100.00
30110;BME280;14965;50.660;13.226;2023-02-13T07:59:21;96850.38;;;2.88;100.00
30110;BME280;14965;50.660;13.226;2023-02-13T08:01:47;96854.50;;;2.94;100.00
30110;BME280;14965;50.660;13.226;2023-02-13T08:04:14;96854.59;;;2.98;100.00
30110;BME280;14965;50.660;13.226;2023-02-13T08:06:41;96843.91;;;3.05;100.00
30110;BME280;14965;50.660;13.226;2023-02-13T08:09:17;96846.75;;;3.09;100.00
30110;BME280;14965;50.660;13.226;2023-02-13T08:11:43;96853.00;;;3.09;100.00
30110;BME280;14965;50.660;13.226;2023-02-13T08:14:09;96843.81;;;3.14;100.00
30110;BME280;14965;50.660;13.226;2023-02-13T08:16:35;96839.34;;;3.21;100.00
30110;BME280;14965;50.660;13.226;2023-02-13T08:19:01;96836.84;;;3.29;100.00
30110;BME280;14965;50.660;13.226;2023-02-13T08:21:29;96838.53;;;3.33;100.00
30110;BME280;14965;50.660;13.226;2023-02-13T08:23:55;96837.41;;;3.34;100.00
30110;BME280;14965;50.660;13.226;2023-02-13T08:26:21;96843.31;;;3.36;100.00
30110;BME280;14965;50.660;13.226;2023-02-13T08:28:47;96843.88;;;3.42;100.00
30110;BME280;14965;50.660;13.226;2023-02-13T08:31:13;96837.84;;;3.48;100.00
30110;BME280;14965;50.660;13.226;2023-02-13T08:33:39;96833.28;;;3.53;100.00
30110;BME280;14965;50.660;13.226;2023-02-13T08:36:05;96847.16;;;3.60;100.00
30110;BME280;14965;50.660;13.226;2023-02-13T08:38:33;96841.34;;;3.61;100.00
30110;BME280;14965;50.660;13.226;2023-02-13T08:40:59;96843.63;;;3.59;100.00
30110;BME280;14965;50.660;13.226;2023-02-13T08:43:25;96839.88;;;3.64;100.00
30110;BME280;14965;50.660;13.226;2023-02-13T08:45:51;96849.31;;;3.66;100.00
30110;BME280;14965;50.660;13.226;2023-02-13T08:48:16;96848.00;;;3.76;100.00
30110;BME280;14965;50.660;13.226;2023-02-13T08:50:42;96846.88;;;3.89;100.00
30110;BME280;14965;50.660;13.226;2023-02-13T08:53:08;96854.31;;;4.05;100.00
30110;BME280;14965;50.660;13.226;2023-02-13T08:55:35;96848.00;;;4.16;100.00
30110;BME280;14965;50.660;13.226;2023-02-13T08:58:02;96851.84;;;4.28;100.00
30110;BME280;14965;50.660;13.226;2023-02-13T09:00:30;96852.91;;;4.39;100.00
30110;BME280;14965;50.660;13.226;2023-02-13T09:03:00;96849.94;;;4.44;100.00
30110;BME280;14965;50.660;13.226;2023-02-13T09:05:26;96854.25;;;4.45;100.00
30110;BME280;14965;50.660;13.226;2023-02-13T09:07:52;96857.69;;;4.42;100.00
30110;BME280;14965;50.660;13.226;2023-02-13T09:10:18;96852.91;;;4.39;100.00
30110;BME280;14965;50.660;13.226;2023-02-13T09:12:52;96845.59;;;4.43;100.00
30110;BME280;14965;50.660;13.226;2023-02-13T09:15:18;96837.47;;;4.46;100.00
30110;BME280;14965;50.660;13.226;2023-02-13T09:17:44;96841.91;;;4.51;100.00
30110;BME280;14965;50.660;13.226;2023-02-13T09:20:11;96845.47;;;4.52;100.00
30110;BME280;14965;50.660;13.226;2023-02-13T09:22:37;96844.63;;;4.51;100.00
30110;BME280;14965;50.660;13.226;2023-02-13T09:25:03;96847.13;;;4.56;100.00
30110;BME280;14965;50.660;13.226;2023-02-13T09:27:29;96845.47;;;4.52;100.00
30110;BME280;14965;50.660;13.226;2023-02-13T09:29:56;96850.38;;;4.46;100.00
30110;BME280;14965;50.660;13.226;2023-02-13T09:32:22;96855.03;;;4.45;100.00
30110;BME280;14965;50.660;13.226;2023-02-13T09:34:49;96848.19;;;4.52;100.00
30110;BME280;14965;50.660;13.226;2023-02-13T09:37:15;96846.97;;;4.65;100.00
30110;BME280;14965;50.660;13.226;2023-02-13T09:39:41;96853.06;;;4.74;100.00
30110;BME280;14965;50.660;13.226;2023-02-13T09:42:20;96843.38;;;4.77;100.00
30110;BME280;14965;50.660;13.226;2023-02-13T09:44:49;96851.03;;;4.71;100.00
30110;BME280;14965;50.660;13.226;2023-02-13T09:47:27;96848.25;;;4.55;100.00
30110;BME280;14965;50.660;13.226;2023-02-13T09:49:59;96856.81;;;4.54;100.00
30110;BME280;14965;50.660;13.226;2023-02-13T09:52:32;96853.41;;;4.57;100.00
30110;BME280;14965;50.660;13.226;2023-02-13T09:55:00;96858.78;;;4.53;100.00
30110;BME280;14965;50.660;13.226;2023-02-13T09:57:30;96860.53;;;4.45;100.00
30110;BME280;14965;50.660;13.226;2023-02-13T10:00:06;96850.00;;;4.32;100.00
30110;BME280;14965;50.660;13.226;2023-02-13T10:02:53;96864.63;;;4.23;100.00
30110;BME280;14965;50.660;13.226;2023-02-13T10:05:43;96868.16;;;4.24;100.00
30110;BME280;14965;50.660;13.226;2023-02-13T10:08:29;96862.00;;;4.27;100.00
30110;BME280;14965;50.660;13.226;2023-02-13T10:11:11;96862.56;;;4.20;100.00
30110;BME280;14965;50.660;13.226;2023-02-13T10:14:00;96861.69;;;4.16;100.00
30110;BME280;14965;50.660;13.226;2023-02-13T10:16:34;96868.78;;;4.05;100.00
30110;BME280;14965;50.660;13.226;2023-02-13T10:19:13;96862.69;;;3.84;100.00
30110;BME280;14965;50.660;13.226;2023-02-13T10:21:51;96862.50;;;3.77;100.00
30110;BME280;14965;50.660;13.226;2023-02-13T10:24:30;96869.22;;;3.67;100.00
30110;BME280;14965;50.660;13.226;2023-02-13T10:27:04;96870.16;;;3.46;100.00
30110;BME280;14965;50.660;13.226;2023-02-13T10:29:40;96864.72;;;3.34;100.00
30110;BME280;14965;50.660;13.226;2023-02-13T10:32:11;96859.84;;;3.28;100.00
30110;BME280;14965;50.660;13.226;2023-02-13T10:34:45;96866.09;;;3.28;100.00
30110;BME280;14965;50.660;13.226;2023-02-13T10:37:15;96861.41;;;3.29;100.00
30110;BME280;14965;50.660;13.226;2023-02-13T10:39:45;96866.22;;;3.32;100.00
30110;BME280;14965;50.660;13.226;2023-02-13T10:42:24;96862.22;;;3.29;100.00
30110;BME280;14965;50.660;13.226;2023-02-13T10:45:07;96863.13;;;3.33;100.00
30110;BME280;14965;50.660;13.226;2023-02-13T10:47:57;96862.88;;;3.38;100.00
30110;BME280;14965;50.660;13.226;2023-02-13T10:50:33;96864.38;;;3.48;100.00
30110;BME280;14965;50.660;13.226;2023-02-13T10:53:13;96865.38;;;3.56;100.00
30110;BME280;14965;50.660;13.226;2023-02-13T10:56:14;96860.91;;;3.63;100.00
30110;BME280;14965;50.660;13.226;2023-02-13T10:58:56;96852.03;;;3.66;100.00
30110;BME280;14965;50.660;13.226;2023-02-13T11:01:36;96861.13;;;3.70;100.00
30110;BME280;14965;50.660;13.226;2023-02-13T11:04:07;96854.53;;;3.71;100.00
30110;BME280;14965;50.660;13.226;2023-02-13T11:06:41;96851.09;;;3.74;100.00
30110;BME280;14965;50.660;13.226;2023-02-13T11:09:08;96855.88;;;3.78;100.00
30110;BME280;14965;50.660;13.226;2023-02-13T11:11:37;96852.38;;;3.77;100.00
30110;BME280;14965;50.660;13.226;2023-02-13T11:14:11;96846.19;;;3.80;100.00
30110;BME280;14965;50.660;13.226;2023-02-13T11:16:43;96843.91;;;3.82;100.00
30110;BME280;14965;50.660;13.226;2023-02-13T11:19:17;96848.81;;;3.89;100.00
30110;BME280;14965;50.660;13.226;2023-02-13T11:21:47;96841.47;;;3.93;100.00
30110;BME280;14965;50.660;13.226;2023-02-13T11:24:21;96847.41;;;3.95;100.00
30110;BME280;14965;50.660;13.226;2023-02-13T11:26:52;96835.53;;;4.03;100.00
30110;BME280;14965;50.660;13.226;2023-02-13T11:29:24;96834.69;;;4.15;100.00
30110;BME280;14965;50.660;13.226;2023-02-13T11:32:18;96834.75;;;4.31;100.00
30110;BME280;14965;50.660;13.226;2023-02-13T11:34:45;96832.63;;;4.40;100.00
30110;BME280;14965;50.660;13.226;2023-02-13T11:37:20;96829.63;;;4.45;100.00
30110;BME280;14965;50.660;13.226;2023-02-13T11:39:49;96825.06;;;4.49;100.00
30110;BME280;14965;50.660;13.226;2023-02-13T11:42:21;96820.47;;;4.53;100.00
30110;BME280;14965;50.660;13.226;2023-02-13T11:44:52;96814.47;;;4.63;100.00
30110;BME280;14965;50.660;13.226;2023-02-13T11:47:35;96809.09;;;4.67;100.00
30110;BME280;14965;50.660;13.226;2023-02-13T11:50:05;96811.50;;;4.68;100.00
30110;BME280;14965;50.660;13.226;2023-02-13T11:52:34;96804.59;;;4.74;100.00
30110;BME280;14965;50.660;13.226;2023-02-13T11:55:03;96805.84;;;4.77;100.00
30110;BME280;14965;50.660;13.226;2023-02-13T11:57:32;96813.25;;;4.77;100.00
30110;BME280;14965;50.660;13.226;2023-02-13T12:00:01;96811.03;;;4.82;100.00
30110;BME280;14965;50.660;13.226;2023-02-13T12:02:48;96815.72;;;4.82;100.00
30110;BME280;14965;50.660;13.226;2023-02-13T12:05:16;96816.25;;;4.87;100.00
30110;BME280;14965;50.660;13.226;2023-02-13T12:07:45;96814.56;;;4.98;100.00
30110;BME280;14965;50.660;13.226;2023-02-13T12:10:20;96809.78;;;5.11;100.00
30110;BME280;14965;50.660;13.226;2023-02-13T12:12:53;96808.53;;;5.24;100.00
30110;BME280;14965;50.660;13.226;2023-02-13T12:15:24;96811.50;;;5.35;99.96
30110;BME280;14965;50.660;13.226;2023-02-13T12:18:03;96817.88;;;5.39;98.90
30110;BME280;14965;50.660;13.226;2023-02-13T12:20:42;96804.88;;;5.36;98.30
30110;BME280;14965;50.660;13.226;2023-02-13T12:23:29;96810.34;;;5.36;98.17
30110;BME280;14965;50.660;13.226;2023-02-13T12:26:22;96795.00;;;5.32;98.18
30110;BME280;14965;50.660;13.226;2023-02-13T12:29:12;96785.81;;;5.24;98.21
30110;BME280;14965;50.660;13.226;2023-02-13T12:31:54;96782.72;;;5.25;97.44
30110;BME280;14965;50.660;13.226;2023-02-13T12:35:02;96784.22;;;5.23;96.85
30110;BME280;14965;50.660;13.226;2023-02-13T12:37:56;96781.22;;;5.28;97.46
30110;BME280;14965;50.660;13.226;2023-02-13T12:41:12;96773.59;;;5.37;97.38
30110;BME280;14965;50.660;13.226;2023-02-13T12:44:02;96770.06;;;5.37;97.57
30110;BME280;14965;50.660;13.226;2023-02-13T12:46:39;96776.88;;;5.27;97.77
30110;BME280;14965;50.660;13.226;2023-02-13T12:49:26;96768.13;;;5.21;97.83
30110;BME280;14965;50.660;13.226;2023-02-13T12:52:18;96772.03;;;5.20;98.19
30110;BME280;14965;50.660;13.226;2023-02-13T12:55:01;96767.63;;;5.16;97.94
30110;BME280;14965;50.660;13.226;2023-02-13T12:57:46;96767.91;;;5.11;98.36
30110;BME280;14965;50.660;13.226;2023-02-13T13:00:34;96772.16;;;5.08;98.94
30110;BME280;14965;50.660;13.226;2023-02-13T13:03:23;96777.81;;;4.99;98.08
30110;BME280;14965;50.660;13.226;2023-02-13T13:06:15;96780.47;;;4.96;98.73
30110;BME280;14965;50.660;13.226;2023-02-13T13:09:02;96771.63;;;5.03;98.49
30110;BME280;14965;50.660;13.226;2023-02-13T13:11:55;96774.00;;;5.04;98.89
30110;BME280;14965;50.660;13.226;2023-02-13T13:14:37;96767.28;;;5.02;98.33
30110;BME280;14965;50.660;13.226;2023-02-13T13:17:19;96772.84;;;5.05;98.69